Flight Track Log - Related Links

Times and Time Zones

All times are in EDT time to prevent confusion due to time zone crossing. See the DAL674 flight status page for this flight to view local times or setup timezone preferences in your user account.

Time Position Orientation Groundspeed Altitude Reporting Facility
EDT Latitude Longitude Course Direction KTS MPH feet Rate Location/Type
02:31PM 18.3333 -64.9333 281° West 160 184 1,500  Level San Juan Center
02:32PM 18.2833 -64.9333 180° South 190 219 3,300 2,450 Climbing San Juan Center
02:33PM 18.2667 -65.0000 255° West 280 322 6,400 3,100 Climbing San Juan Center
02:34PM 18.5921 -65.2409 282° West  Level Estimated
02:34PM 18.2833 -65.0833 282° West 300 345 9,500  Level San Juan Center
02:35PM 18.6770 -65.3303 289° West  Level Estimated
02:35PM 18.3000 -65.1833 280° West 330 380 11,700  Level San Juan Center
02:36PM 18.7618 -65.4197 281° West  Level Estimated
02:36PM 18.3167 -65.2833 280° West 370 426 13,200  Level San Juan Center
02:37PM 18.4000 -65.3667 317° Northwest 390 449 15,400 2,182 Climbing San Juan Center
02:38PM 18.4833 -65.4500 317° Northwest 390 449 17,600 2,100 Climbing San Juan Center
02:39PM 18.5500 -65.5333 310° West 420 483 19,600 1,900 Climbing San Juan Center
02:40PM 18.6500 -65.6333 317° Northwest 450 518 21,400 1,700 Climbing San Juan Center
02:41PM 18.7167 -65.7167 310° West 430 495 23,000 1,600 Climbing San Juan Center
02:42PM 18.8000 -65.8167 311° West 450 518 24,600 1,500 Climbing San Juan Center
02:43PM 18.9000 -65.9167 317° Northwest 470 541 26,000 1,300 Climbing San Juan Center
02:44PM 18.9833 -66.0167 311° West 460 529 27,200 1,240 Climbing San Juan Center
02:45PM 19.0833 -66.1167 317° Northwest 470 541 28,500 1,140 Climbing San Juan Center
02:46PM 19.1667 -66.2167 311° West 490 564 29,500 1,200 Climbing San Juan Center
02:47PM 19.2500 -66.3167 311° West 470 541 30,900 1,500 Climbing San Juan Center
02:48PM 19.3333 -66.4167 311° West 480 552 32,500 1,550 Climbing San Juan Center
02:49PM 19.4333 -66.5167 317° Northwest 480 552 34,000 1,500 Climbing San Juan Center
02:50PM 19.5167 -66.6167 311° West 470 541 35,500 1,350 Climbing San Juan Center
02:51PM 19.6000 -66.7167 312° West 460 529 36,700 950 Climbing San Juan Center
02:52PM 19.6833 -66.8167 312° West 470 541 37,400 650 Climbing San Juan Center
02:53PM 19.7833 -66.9167 317° Northwest 470 541 38,000 298 Climbing San Juan Center
02:54PM 19.8667 -67.0333 307° West 470 541 38,000  Level San Juan Center
02:55PM 19.9500 -67.1333 312° West 470 541 38,000  Level San Juan Center
02:56PM 20.0500 -67.2333 317° Northwest 480 552 38,000  Level San Juan Center
02:57PM 20.1500 -67.3500 312° West 480 552 38,000  Level San Juan Center
02:58PM 20.2333 -67.4333 317° Northwest 480 552 38,000  Level San Juan Center
02:59PM 20.3167 -67.5500 307° West 470 541 38,000 500 Level San Juan Center
03:00PM 20.4167 -67.6667 312° West 470 541 39,000 850 Climbing San Juan Center
03:01PM 20.5000 -67.7500 317° Northwest 460 529 39,700 420 Climbing San Juan Center
03:02PM 20.6503 -67.9167 314° West 598 688 40,000 126 Climbing Miami Center
03:03PM 20.7311 -68.0197 310° West 505 581 40,000  Level Miami Center
03:04PM 20.8222 -68.1244 313° West 492 566 40,000  Level Miami Center
03:05PM 20.8972 -68.2350 306° West 479 551 40,000  Level Miami Center
03:06PM 20.9764 -68.3472 308° West 479 551 40,000  Level Miami Center
03:07PM 20.9802 -68.3545 308° West  Level FlightAware Approximate
03:07PM 21.0553 -68.4600 307° West 479 551 40,000  Level Miami Center
03:08PM 21.1361 -68.5681 309° West 479 551 40,000  Level Miami Center
03:10PM 21.2150 -68.6808 307° West 473 544 40,000  Level Miami Center
03:11PM 21.3117 -68.8128 308° West 473 544 40,000  Level Miami Center
03:12PM 21.3861 -68.9219 306° West 478 550 40,000  Level Miami Center
03:13PM 21.4689 -69.0328 309° West 472 543 40,000  Level Miami Center
03:14PM 21.5472 -69.1417 308° West 472 543 40,000  Level Miami Center
03:15PM 21.6278 -69.2506 309° West 467 537 40,000  Level Miami Center
03:16PM 21.7042 -69.3622 306° West 461 531 40,000  Level Miami Center
03:17PM 21.7825 -69.4739 307° West 461 531 40,000  Level Miami Center
03:18PM 21.8608 -69.5833 308° West 466 536 40,000  Level Miami Center
03:19PM 21.9389 -69.6953 307° West 466 536 40,000  Level Miami Center
03:20PM 22.0172 -69.8094 307° West 466 536 40,000  Level Miami Center
03:21PM 22.0953 -69.9194 307° West 466 536 40,000  Level Miami Center
03:22PM 22.1778 -70.0339 308° West 466 536 40,000  Level Miami Center
03:23PM 22.2556 -70.1439 307° West 466 536 40,000  Level Miami Center
03:24PM 22.3314 -70.2567 306° West 466 536 40,000  Level Miami Center
03:25PM 22.4269 -70.3931 307° West 466 536 40,000  Level Miami Center
03:26PM 22.5067 -70.5036 308° West 466 536 40,000  Level Miami Center
03:27PM 22.5844 -70.6167 307° West 466 536 40,000  Level Miami Center
03:28PM 22.6622 -70.7322 306° West 466 536 40,000  Level Miami Center
03:29PM 22.7417 -70.8431 308° West 466 536 40,000  Level Miami Center
03:30PM 22.8128 -70.9500 306° West 479 551 40,000  Level Miami Center
03:31PM 22.8922 -71.0592 308° West 479 551 40,000  Level Miami Center
03:32PM 22.9694 -71.1728 306° West 474 545 40,000  Level Miami Center
03:33PM 23.0469 -71.2889 306° West 474 545 40,000  Level Miami Center
03:34PM 23.1261 -71.4028 307° West 474 545 40,000  Level Miami Center
03:35PM 23.2033 -71.5169 306° West 474 545 40,000  Level Miami Center
03:36PM 23.2825 -71.6333 307° West 474 545 40,000  Level Miami Center
03:37PM 23.3597 -71.7500 306° West 474 545 40,000  Level Miami Center
03:38PM 23.4386 -71.8622 307° West 474 545 40,000  Level Miami Center
03:39PM 23.5175 -71.9769 307° West 474 545 40,000  Level Miami Center
03:40PM 23.5944 -72.0919 306° West 474 545 40,000  Level Miami Center
03:41PM 23.6733 -72.2067 307° West 474 545 40,000  Level Miami Center
03:42PM 23.7497 -72.3219 306° West 474 545 40,000  Level Miami Center
03:43PM 23.8264 -72.4372 306° West 474 545 40,000  Level Miami Center
03:44PM 23.8925 -72.5575 301° West 430 495 40,000  Level Miami Center
03:45PM 23.9683 -72.6503 312° West 465 535 40,000  Level Miami Center
03:46PM 24.0597 -72.7861 306° West 465 535 40,000  Level Miami Center
03:47PM 24.1361 -72.8997 306° West 465 535 40,000  Level Miami Center
03:48PM 24.2119 -73.0133 306° West 465 535 40,000  Level Miami Center
03:49PM 24.2881 -73.1294 306° West 465 535 40,000  Level Miami Center
03:50PM 24.3619 -73.2436 305° West 465 535 40,000  Level Miami Center
03:51PM 24.4378 -73.3578 306° West 463 533 40,000  Level Miami Center
03:52PM 24.5028 -73.4586 305° West 463 533 40,000  Level Miami Center
03:53PM 24.5808 -73.5775 306° West 463 533 40,000  Level Miami Center
03:54PM 24.6583 -73.6897 307° West 468 539 40,000  Level Miami Center
03:55PM 24.7319 -73.8069 305° West 463 533 40,000  Level Miami Center
03:56PM 24.8053 -73.9217 305° West 463 533 40,000  Level Miami Center
03:57PM 24.8806 -74.0367 306° West 463 533 40,000  Level Miami Center
03:58PM 24.9561 -74.1519 306° West 463 533 40,000  Level Miami Center
03:59PM 25.0311 -74.2694 305° West 463 533 40,000  Level Miami Center
04:00PM 25.1064 -74.3825 306° West 463 533 40,000  Level Miami Center
04:01PM 25.2039 -74.4747 319° Northwest 463 533 40,000  Level Miami Center
04:02PM 25.3058 -74.5717 319° Northwest 461 531 40,000  Level Miami Center
04:03PM 25.4033 -74.6617 320° Northwest 461 531 40,000  Level Miami Center
04:04PM 25.5050 -74.7519 321° Northwest 466 536 40,000  Level Miami Center
04:05PM 25.6044 -74.8378 322° Northwest 461 531 40,000  Level Miami Center
04:06PM 25.7058 -74.9306 321° Northwest 466 536 40,000  Level Miami Center
04:07PM 25.8178 -75.0303 321° Northwest 466 536 40,000  Level Miami Center
04:08PM 25.9131 -75.1236 319° Northwest 466 536 40,000  Level Miami Center
04:09PM 26.0042 -75.2217 316° Northwest 454 522 40,000  Level Miami Center
04:10PM 26.0950 -75.3200 316° Northwest 454 522 40,000  Level Miami Center
04:11PM 26.1836 -75.4139 316° Northwest 449 517 40,000  Level Miami Center
04:12PM 26.2744 -75.5122 316° Northwest 449 517 40,000  Level Miami Center
04:13PM 26.3611 -75.6156 313° West 456 525 40,000  Level Miami Center
04:14PM 26.4475 -75.7122 315° West 448 516 40,000  Level Miami Center
04:15PM 26.5403 -75.8206 314° West 448 516 40,000  Level Miami Center
04:16PM 26.6078 -75.9036 312° West 443 510 40,000  Level Miami Center
04:17PM 26.6919 -76.0097 312° West 450 518 40,000  Level Miami Center
04:18PM 26.7572 -76.1303 301° West 450 518 40,000  Level Miami Center
04:19PM 26.8186 -76.2511 300° West 450 518 40,000  Level Miami Center
04:20PM 26.8794 -76.3647 301° West 437 503 40,000  Level Miami Center
04:21PM 26.9425 -76.4858 300° West 447 514 40,000  Level Miami Center
04:22PM 27.0014 -76.5975 301° West 437 503 40,000  Level Miami Center
04:23PM 27.0642 -76.7164 301° West 437 503 40,000  Level Miami Center
04:24PM 27.1269 -76.8331 301° West 437 503 40,000  Level Miami Center
04:25PM 27.1853 -76.9403 301° West 431 496 40,000  Level Miami Center
04:26PM 27.2481 -77.0619 300° West 431 496 40,000  Level Miami Center
04:27PM 27.3061 -77.1694 301° West 424 488 40,000  Level Miami Center
04:28PM 27.3664 -77.2914 299° West 430 495 40,000  Level Miami Center
04:29PM 27.4267 -77.4017 302° West 430 495 40,000  Level Miami Center
04:30PM 27.4950 -77.5214 303° West 430 495 40,000  Level Miami Center
04:31PM 27.5550 -77.6364 300° West 423 487 40,000  Level Miami Center
04:32PM 27.6128 -77.7564 299° West 436 502 40,000  Level Miami Center
04:33PM 27.6603 -77.8578 298° West 420 483 40,000  Level Miami Center
04:34PM 27.7242 -77.9708 303° West 420 483 40,000  Level Miami Center
04:35PM 27.7817 -78.0864 299° West 426 490 40,000  Level Miami Center
04:36PM 27.8456 -78.2022 302° West 426 490 40,000  Level Miami Center
04:37PM 27.9047 -78.3181 300° West 421 484 40,000 454 Level Miami Center
04:38PM 27.9642 -78.4317 301° West 421 484 40,900 496 Climbing Miami Center
04:39PM 28.0256 -78.5431 302° West 421 484 41,000 50 Climbing Miami Center
04:40PM 28.0828 -78.6569 300° West 421 484 41,000  Level Miami Center
04:41PM 28.1417 -78.7708 300° West 427 491 41,000  Level Miami Center
04:42PM 28.2028 -78.8922 300° West 427 491 41,000  Level Miami Center
04:43PM 28.2614 -79.0111 299° West 427 491 41,000  Level Miami Center
04:44PM 28.3203 -79.1278 300° West 427 491 41,000  Level Miami Center
04:45PM 28.3808 -79.2469 300° West 427 491 41,000  Level Miami Center
04:46PM 28.4375 -79.3639 299° West 427 491 41,000  Level Miami Center
04:47PM 28.4981 -79.4808 301° West 427 491 41,000  Level Miami Center
04:48PM 28.5561 -79.6006 299° West 427 491 41,000  Level Miami Center
04:49PM 28.6164 -79.7178 300° West 427 491 41,000  Level Miami Center
04:50PM 28.6767 -79.8378 300° West 427 491 41,000  Level Miami Center
04:52PM 28.8214 -80.1247 300° West 430 495 41,000  Level Jacksonville Center
04:53PM 28.8800 -80.2417 300° West 430 495 41,000  Level Jacksonville Center
04:54PM 28.9475 -80.3775 300° West 436 502 41,000  Level Jacksonville Center
04:55PM 29.0042 -80.4947 299° West 431 496 41,000 -500 Level Jacksonville Center
04:56PM 29.0603 -80.6097 299° West 426 490 40,000 -1,000 Descending Jacksonville Center
04:57PM 29.1144 -80.7225 299° West 420 483 39,000 -500 Descending Jacksonville Center
04:58PM 29.1603 -80.8428 294° West 413 475 39,000  Level Jacksonville Center
04:59PM 29.1500 -80.9761 265° West 409 471 39,000  Level Jacksonville Center
05:00PM 29.1372 -81.1072 264° West 426 490 39,000  Level Jacksonville Center
05:01PM 29.1264 -81.2381 265° West 419 482 39,000  Level Jacksonville Center
05:02PM 29.1300 -81.3689 272° West 410 472 39,000  Level Jacksonville Center
05:03PM 29.2064 -81.4628 313° West 376 433 39,000  Level Jacksonville Center
05:04PM 29.3150 -81.4850 350° North 353 406 39,000  Level Jacksonville Center
05:05PM 29.4292 -81.4094 30° Northeast 371 427 39,000  Level Jacksonville Center
05:06PM 29.5267 -81.3697 20° North 392 451 39,000  Level Jacksonville Center
05:07PM 29.6358 -81.4111 342° North 392 451 39,000  Level Jacksonville Center
05:08PM 29.7386 -81.4622 337° Northwest 393 452 39,000  Level Jacksonville Center
05:09PM 29.8436 -81.5156 336° Northwest 403 464 39,000  Level Jacksonville Center
05:10PM 29.9528 -81.5692 337° Northwest 408 470 39,000  Level Jacksonville Center
05:11PM 30.0578 -81.6206 337° Northwest 414 476 39,000  Level Jacksonville Center
05:12PM 30.1606 -81.6744 336° Northwest 414 476 39,000  Level Jacksonville Center
05:13PM 30.2653 -81.7214 339° North 408 470 39,000  Level Jacksonville Center
05:14PM 30.3722 -81.7731 337° Northwest 408 470 39,000  Level Jacksonville Center
05:15PM 30.4750 -81.8225 337° Northwest 403 464 39,000  Level Jacksonville Center
05:16PM 30.5861 -81.8767 337° Northwest 403 464 39,000  Level Jacksonville Center
05:17PM 30.6867 -81.9239 338° Northwest 403 464 39,000  Level Jacksonville Center
05:18PM 30.7894 -81.9761 336° Northwest 398 458 39,000  Level Jacksonville Center
05:19PM 30.8942 -82.0258 338° Northwest 398 458 39,000  Level Jacksonville Center
05:20PM 30.9967 -82.0758 337° Northwest 398 458 39,000 -100 Level Jacksonville Center
05:21PM 31.1036 -82.1258 338° Northwest 398 458 38,800 -706 Descending Jacksonville Center
05:22PM 31.2061 -82.1761 337° Northwest 398 458 37,600 -1,350 Descending Jacksonville Center
05:23PM 31.3108 -82.2239 339° North 398 458 36,100 -1,300 Descending Jacksonville Center
05:24PM 31.4156 -82.2742 338° Northwest 398 458 35,000 -338 Descending Jacksonville Center
05:26PM 31.6478 -82.3850 338° Northwest 395 455 35,000  Level Atlanta Center
05:27PM 31.7550 -82.4342 339° North 395 455 35,000  Level Atlanta Center
05:28PM 31.8600 -82.4861 337° Northwest 395 455 35,000  Level Atlanta Center
05:29PM 31.9631 -82.5528 331° Northwest 400 460 35,000  Level Atlanta Center
05:30PM 32.0517 -82.6397 320° Northwest 407 468 35,000 -400 Level Atlanta Center
05:31PM 32.1425 -82.7314 319° Northwest 414 476 34,200 -1,200 Descending Atlanta Center
05:32PM 32.2289 -82.8161 320° Northwest 414 476 32,600 -1,600 Descending Atlanta Center
05:33PM 32.3194 -82.9083 319° Northwest 414 476 31,000 -1,650 Descending Atlanta Center
05:34PM 32.4100 -82.9981 320° Northwest 414 476 29,300 -1,600 Descending Atlanta Center
05:35PM 32.5047 -83.0906 321° Northwest 419 482 27,800 -1,450 Descending Atlanta Center
05:36PM 32.5953 -83.1833 319° Northwest 426 490 26,400 -1,300 Descending Atlanta Center
05:37PM 32.6878 -83.2736 321° Northwest 431 496 25,200 -1,150 Descending Atlanta Center
05:38PM 32.7781 -83.3644 320° Northwest 431 496 24,100 -1,150 Descending Atlanta Center
05:39PM 32.8681 -83.4553 320° Northwest 431 496 22,900 -1,150 Descending Atlanta Center
05:40PM 32.9542 -83.5436 319° Northwest 425 489 21,800 -1,300 Descending Atlanta Center
05:41PM 33.0400 -83.6275 321° Northwest 410 472 20,300 -2,450 Descending Atlanta Center
05:42PM 33.1322 -83.7239 319° Northwest 404 465 16,900 -3,050 Descending Atlanta Center
05:43PM 33.2094 -83.8056 319° Northwest 389 448 14,200 -1,650 Descending Atlanta Center
05:44PM 33.2722 -83.8897 312° West 379 436 13,600 -1,100 Descending Atlanta Center
05:45PM 33.3392 -83.9892 309° West 379 436 12,000 -632 Descending Atlanta Center
05:47PM 33.4500 -84.1500 310° West 379 436 12,000  Level Atlanta TRACON
05:48PM 33.5167 -84.2333 314° West 340 391 12,000 -250 Level Atlanta TRACON
05:49PM 33.5333 -84.3333 281° West 284 327 11,500 -1,000 Descending Atlanta TRACON
05:50PM 33.5333 -84.4167 270° West 257 296 10,000 -1,750 Descending Atlanta TRACON
05:51PM 33.5333 -84.5000 270° West 242 278 8,000 -2,050 Descending Atlanta TRACON
05:52PM 33.5333 -84.5833 270° West 236 272 5,900 -1,750 Descending Atlanta TRACON
05:53PM 33.5667 -84.6167 320° Northwest 212 244 4,500 -1,368 Descending Atlanta TRACON
05:54PM 33.6000 -84.6000 23° Northeast 184 212 3,300 -1,100 Descending Atlanta TRACON
05:55PM 33.6167 -84.5333 73° East 184 212 2,300 -857 Descending Atlanta TRACON
05:56PM 33.6167 -84.4833 90° East 140 161 1,500 -800 Descending Atlanta TRACON

Login

Don't have an account? Register now (free) for customized features, flight alerts, and more!